createdAt,value
2023-01-22T08:32:48.988Z,16.97
2023-01-22T08:33:00.683Z,17.02
2023-01-22T08:33:11.988Z,17.04
2023-01-22T08:33:23.558Z,17.07
2023-01-22T08:33:34.871Z,17.09
2023-01-22T08:33:46.424Z,17.11
2023-01-22T08:33:57.727Z,17.11
2023-01-22T08:34:09.294Z,17.13
2023-01-22T08:34:20.581Z,17.14
2023-01-22T08:34:32.148Z,17.16
2023-01-22T08:34:43.448Z,17.16
2023-01-22T08:34:55.003Z,17.18
2023-01-22T08:35:06.295Z,17.19
2023-01-22T08:35:17.852Z,17.20
2023-01-22T08:35:29.145Z,17.20
2023-01-22T08:35:40.691Z,17.21
2023-01-22T08:35:51.986Z,17.22
2023-01-22T08:36:03.571Z,17.23
2023-01-22T08:36:14.884Z,17.24
2023-01-22T08:36:26.437Z,17.25
2023-01-22T08:36:37.735Z,17.25
2023-01-22T08:36:49.318Z,17.26
2023-01-22T08:37:00.621Z,17.27
2023-01-22T08:37:12.167Z,17.28
2023-01-22T08:37:23.499Z,17.29
2023-01-22T08:37:35.061Z,17.30
2023-01-22T08:37:46.357Z,17.31
2023-01-22T08:37:57.988Z,17.32
2023-01-22T08:38:09.300Z,17.31
2023-01-22T08:38:20.860Z,17.32
2023-01-22T08:38:32.163Z,17.33
2023-01-22T08:38:43.717Z,17.34
2023-01-22T08:38:55.032Z,17.34
2023-01-22T08:39:06.620Z,17.35
2023-01-22T08:39:17.920Z,17.35
2023-01-22T08:39:29.481Z,17.36
2023-01-22T08:39:40.785Z,17.37
2023-01-22T08:39:52.346Z,17.37
2023-01-22T08:40:03.647Z,17.38
2023-01-22T08:40:15.283Z,17.38
2023-01-22T08:40:26.610Z,17.38
2023-01-22T08:40:38.210Z,17.40
2023-01-22T08:40:49.514Z,17.39
2023-01-22T08:41:01.073Z,17.40
2023-01-22T08:41:12.375Z,17.40
2023-01-22T08:41:23.941Z,17.41
2023-01-22T08:41:35.245Z,17.41
2023-01-22T08:41:46.811Z,17.42
2023-01-22T08:41:58.118Z,17.43
2023-01-22T08:42:09.667Z,17.43
2023-01-22T08:42:20.970Z,17.44
2023-01-22T08:42:32.528Z,17.44
2023-01-22T08:42:43.832Z,17.45
2023-01-22T08:42:55.387Z,17.46
2023-01-22T08:43:06.750Z,17.46
2023-01-22T08:43:18.296Z,17.46
2023-01-22T08:43:29.594Z,17.46
2023-01-22T08:43:41.152Z,17.48
2023-01-22T08:43:52.438Z,17.47
2023-01-22T08:44:03.979Z,17.49
2023-01-22T08:44:15.280Z,17.49
2023-01-22T08:44:26.836Z,17.49
2023-01-22T08:44:38.142Z,17.50
2023-01-22T08:44:49.696Z,17.50
2023-01-22T08:45:00.996Z,17.51
2023-01-22T08:45:12.555Z,17.52
2023-01-22T08:45:23.864Z,17.51
2023-01-22T08:45:35.439Z,17.53
2023-01-22T08:45:46.790Z,17.53
2023-01-22T08:45:58.529Z,17.54
2023-01-22T08:46:09.900Z,17.54
2023-01-22T08:46:21.495Z,17.55
2023-01-22T08:46:32.773Z,17.54
2023-01-22T08:46:44.337Z,17.55
2023-01-22T08:46:55.692Z,17.55
2023-01-22T08:47:07.236Z,17.56
2023-01-22T08:47:18.526Z,17.56
2023-01-22T08:47:30.083Z,17.57
2023-01-22T08:47:41.397Z,17.57
2023-01-22T08:47:53.068Z,17.58
2023-01-22T08:48:04.365Z,17.59
2023-01-22T08:48:15.948Z,17.60
2023-01-22T08:48:27.257Z,17.60
2023-01-22T08:48:39.086Z,17.61
2023-01-22T08:48:50.387Z,17.61
2023-01-22T08:49:01.932Z,17.62
2023-01-22T08:49:13.228Z,17.62
2023-01-22T08:49:24.795Z,17.63
2023-01-22T08:49:36.087Z,17.64
2023-01-22T08:49:47.640Z,17.64
2023-01-22T08:49:58.963Z,17.64
2023-01-22T08:50:10.577Z,17.65
2023-01-22T08:50:21.886Z,17.66
2023-01-22T08:50:33.445Z,17.66
2023-01-22T08:50:44.749Z,17.67
2023-01-22T08:50:56.389Z,17.67
2023-01-22T08:51:07.741Z,17.68
2023-01-22T08:51:19.345Z,17.68
2023-01-22T08:51:33.077Z,17.69
2023-01-22T08:51:42.326Z,17.68
2023-01-22T08:51:53.904Z,17.70
2023-01-22T08:52:05.191Z,17.70
2023-01-22T08:52:16.744Z,17.71
2023-01-22T08:52:28.042Z,17.71
2023-01-22T08:52:39.592Z,17.72
2023-01-22T08:52:50.894Z,17.73
2023-01-22T08:53:02.465Z,17.73
2023-01-22T08:53:13.771Z,17.73
2023-01-22T08:53:25.366Z,17.75
2023-01-22T08:53:36.668Z,17.75
2023-01-22T08:53:48.224Z,17.76
2023-01-22T08:53:59.527Z,17.76
2023-01-22T08:54:11.084Z,17.77
2023-01-22T08:54:22.376Z,17.78
2023-01-22T08:54:33.917Z,17.79
2023-01-22T08:54:45.202Z,17.80
2023-01-22T08:54:56.756Z,17.80
2023-01-22T08:55:08.048Z,17.81
2023-01-22T08:55:19.611Z,17.82
2023-01-22T08:55:30.915Z,17.81
2023-01-22T08:55:42.461Z,17.82
2023-01-22T08:55:53.754Z,17.83
2023-01-22T08:56:05.326Z,17.84
2023-01-22T08:56:16.627Z,17.84
2023-01-22T08:56:28.186Z,17.85
2023-01-22T08:56:39.481Z,17.85
2023-01-22T08:56:51.038Z,17.86
2023-01-22T08:57:02.325Z,17.86
2023-01-22T08:57:13.885Z,17.87
2023-01-22T08:57:25.203Z,17.88
2023-01-22T08:57:36.790Z,17.89
2023-01-22T08:57:48.103Z,17.89
2023-01-22T08:57:59.646Z,17.89
2023-01-22T08:58:10.939Z,17.90
2023-01-22T08:58:22.500Z,17.90
2023-01-22T08:58:33.838Z,17.91
2023-01-22T08:58:45.390Z,17.92
2023-01-22T08:58:56.688Z,17.92
2023-01-22T08:59:08.261Z,17.94
2023-01-22T08:59:19.562Z,17.94
2023-01-22T08:59:31.341Z,17.96
2023-01-22T08:59:43.152Z,17.95
2023-01-22T09:00:01.043Z,17.94
2023-01-22T09:00:06.061Z,17.94
2023-01-22T09:00:17.749Z,17.95
2023-01-22T09:00:29.431Z,17.97
2023-01-22T09:00:40.776Z,17.98
2023-01-22T09:00:52.370Z,17.99
2023-01-22T09:01:03.755Z,17.99
2023-01-22T09:01:15.396Z,18.00
2023-01-22T09:01:26.801Z,18.01
2023-01-22T09:01:38.409Z,18.01
2023-01-22T09:01:49.772Z,18.02
2023-01-22T09:02:01.423Z,18.03
2023-01-22T09:02:12.865Z,18.04
2023-01-22T09:02:24.499Z,18.04
2023-01-22T09:02:35.818Z,18.04
2023-01-22T09:02:47.394Z,18.05
2023-01-22T09:02:58.828Z,18.06
2023-01-22T09:03:10.386Z,18.07
2023-01-22T09:03:21.686Z,18.07
2023-01-22T09:03:33.248Z,18.09
2023-01-22T09:03:44.571Z,18.09
2023-01-22T09:03:56.126Z,18.09
2023-01-22T09:04:07.434Z,18.11
2023-01-22T09:04:18.984Z,18.11
2023-01-22T09:04:30.276Z,18.12
2023-01-22T09:04:41.845Z,18.12
2023-01-22T09:04:53.146Z,18.13
2023-01-22T09:05:04.689Z,18.13
2023-01-22T09:05:16.002Z,18.14
2023-01-22T09:05:27.572Z,18.15
2023-01-22T09:05:38.883Z,18.15
2023-01-22T09:05:50.443Z,18.16
2023-01-22T09:06:01.814Z,18.16
2023-01-22T09:06:13.370Z,18.18
2023-01-22T09:06:24.675Z,18.18
2023-01-22T09:06:36.238Z,18.19
2023-01-22T09:06:47.544Z,18.20
2023-01-22T09:06:59.106Z,18.20
2023-01-22T09:07:10.428Z,18.20
2023-01-22T09:07:21.978Z,18.21
2023-01-22T09:07:33.282Z,18.22
2023-01-22T09:07:44.919Z,18.23
2023-01-22T09:07:56.206Z,18.24
2023-01-22T09:08:07.753Z,18.24
2023-01-22T09:08:19.077Z,18.25
2023-01-22T09:08:30.630Z,18.25
2023-01-22T09:08:41.917Z,18.26
2023-01-22T09:08:53.549Z,18.26
2023-01-22T09:09:04.876Z,18.28
2023-01-22T09:09:16.448Z,18.28
2023-01-22T09:09:27.737Z,18.29
2023-01-22T09:09:39.295Z,18.30
2023-01-22T09:09:50.580Z,18.30
2023-01-22T09:10:02.142Z,18.31
2023-01-22T09:10:13.453Z,18.31
2023-01-22T09:10:25.438Z,18.32
2023-01-22T09:10:37.150Z,18.34
2023-01-22T09:10:48.443Z,18.35
2023-01-22T09:10:59.986Z,18.35
2023-01-22T09:11:11.279Z,18.35
2023-01-22T09:11:22.853Z,18.36
2023-01-22T09:11:34.172Z,18.36
2023-01-22T09:11:45.732Z,18.37
2023-01-22T09:11:57.019Z,18.37
2023-01-22T09:12:08.562Z,18.39
2023-01-22T09:12:19.864Z,18.39
2023-01-22T09:12:31.433Z,18.40
2023-01-22T09:12:42.728Z,18.41
2023-01-22T09:12:54.300Z,18.41
2023-01-22T09:13:05.599Z,18.42
2023-01-22T09:13:17.169Z,18.42
2023-01-22T09:13:28.461Z,18.43
2023-01-22T09:13:40.017Z,18.45
2023-01-22T09:13:51.331Z,18.44
2023-01-22T09:14:02.914Z,18.45
2023-01-22T09:14:14.206Z,18.46
2023-01-22T09:14:25.759Z,18.47
2023-01-22T09:14:37.056Z,18.47
2023-01-22T09:14:48.616Z,18.49
2023-01-22T09:14:59.921Z,18.49
2023-01-22T09:15:11.477Z,18.50
2023-01-22T09:15:22.770Z,18.50
2023-01-22T09:15:34.333Z,18.51
2023-01-22T09:15:45.642Z,18.52
2023-01-22T09:15:58.559Z,18.52
2023-01-22T09:16:07.820Z,18.53
2023-01-22T09:16:19.418Z,18.53
2023-01-22T09:16:30.913Z,18.54
2023-01-22T09:16:42.544Z,18.56
2023-01-22T09:16:53.863Z,18.55
2023-01-22T09:17:05.412Z,18.56
2023-01-22T09:17:16.719Z,18.56
2023-01-22T09:17:28.279Z,18.59
2023-01-22T09:17:39.579Z,18.58
2023-01-22T09:17:51.141Z,18.59
2023-01-22T09:18:02.554Z,18.60
2023-01-22T09:18:14.105Z,18.61
2023-01-22T09:18:25.412Z,18.61
2023-01-22T09:18:36.962Z,18.62
2023-01-22T09:18:48.268Z,18.63
2023-01-22T09:18:59.821Z,18.64
2023-01-22T09:19:11.150Z,18.64
2023-01-22T09:19:22.692Z,18.65
2023-01-22T09:19:34.011Z,18.65
2023-01-22T09:19:45.564Z,18.66
2023-01-22T09:19:56.872Z,18.66
2023-01-22T09:20:08.429Z,18.67
2023-01-22T09:20:20.094Z,18.67
2023-01-22T09:20:31.964Z,18.69
2023-01-22T09:20:43.295Z,18.69
2023-01-22T09:20:54.835Z,18.70
2023-01-22T09:21:06.126Z,18.71
2023-01-22T09:21:17.669Z,18.71
2023-01-22T09:21:28.977Z,18.72
2023-01-22T09:21:40.555Z,18.73
2023-01-22T09:21:51.851Z,18.73
2023-01-22T09:22:03.413Z,18.74
2023-01-22T09:22:14.701Z,18.74
2023-01-22T09:22:26.267Z,18.75
2023-01-22T09:22:37.561Z,18.75
2023-01-22T09:22:49.111Z,18.76
2023-01-22T09:23:00.422Z,18.77
2023-01-22T09:23:14.209Z,18.78
2023-01-22T09:23:22.499Z,18.78
2023-01-22T09:23:33.822Z,18.79
2023-01-22T09:23:45.408Z,18.80
2023-01-22T09:23:56.785Z,18.80
2023-01-22T09:24:08.329Z,18.81
2023-01-22T09:24:19.679Z,18.81
2023-01-22T09:24:31.222Z,18.82
2023-01-22T09:24:42.504Z,18.83
2023-01-22T09:24:54.061Z,18.84
2023-01-22T09:25:05.381Z,18.84
2023-01-22T09:25:16.941Z,18.85
2023-01-22T09:25:28.257Z,18.86
2023-01-22T09:25:39.818Z,18.86
2023-01-22T09:25:51.125Z,18.86
2023-01-22T09:26:02.686Z,18.88
2023-01-22T09:26:13.988Z,18.88
2023-01-22T09:26:25.541Z,18.89
2023-01-22T09:26:36.842Z,18.89
2023-01-22T09:26:48.411Z,18.90
2023-01-22T09:26:59.706Z,18.91
2023-01-22T09:27:11.268Z,18.91
2023-01-22T09:27:22.568Z,18.92
2023-01-22T09:27:34.119Z,18.93
2023-01-22T09:27:45.424Z,18.93
2023-01-22T09:27:57.000Z,18.94
2023-01-22T09:28:08.323Z,18.94
2023-01-22T09:28:19.879Z,18.96
2023-01-22T09:28:31.163Z,18.96
2023-01-22T09:28:42.713Z,18.96
2023-01-22T09:28:54.038Z,18.96
2023-01-22T09:29:05.609Z,18.97
2023-01-22T09:29:16.903Z,18.99
2023-01-22T09:29:28.498Z,18.99
2023-01-22T09:29:39.816Z,18.99
2023-01-22T09:29:51.381Z,18.99
2023-01-22T09:30:02.672Z,19.00
2023-01-22T09:30:14.243Z,19.00
2023-01-22T09:30:25.540Z,19.01
2023-01-22T09:30:37.151Z,19.01
2023-01-22T09:30:48.466Z,19.01
2023-01-22T09:31:00.108Z,19.02
2023-01-22T09:31:11.486Z,19.03
2023-01-22T09:31:23.193Z,19.04
2023-01-22T09:31:34.531Z,19.04
2023-01-22T09:31:46.148Z,19.04
2023-01-22T09:31:57.578Z,19.05
2023-01-22T09:32:09.160Z,19.05
2023-01-22T09:32:20.469Z,19.06
2023-01-22T09:32:32.032Z,19.07
2023-01-22T09:32:43.329Z,19.07
2023-01-22T09:32:54.898Z,19.08
2023-01-22T09:33:06.308Z,19.08
2023-01-22T09:33:17.857Z,19.10
2023-01-22T09:33:29.197Z,19.10
2023-01-22T09:33:40.783Z,19.10
2023-01-22T09:33:52.091Z,19.10
2023-01-22T09:34:03.653Z,19.11
2023-01-22T09:34:14.939Z,19.12
2023-01-22T09:34:26.494Z,19.12
2023-01-22T09:34:37.861Z,19.12
2023-01-22T09:34:49.413Z,19.13
2023-01-22T09:35:00.709Z,19.13
2023-01-22T09:35:12.271Z,19.14
2023-01-22T09:35:23.562Z,19.14
2023-01-22T09:35:35.118Z,19.16
2023-01-22T09:35:46.434Z,19.15
2023-01-22T09:35:57.988Z,19.17
2023-01-22T09:36:09.277Z,19.16
2023-01-22T09:36:20.827Z,19.17
2023-01-22T09:36:32.135Z,19.17
2023-01-22T09:36:43.729Z,19.17
2023-01-22T09:36:55.043Z,19.18
2023-01-22T09:37:06.598Z,19.19
2023-01-22T09:37:17.889Z,19.19
2023-01-22T09:37:29.448Z,19.20
2023-01-22T09:37:40.775Z,19.20
2023-01-22T09:37:52.372Z,19.20
2023-01-22T09:38:03.670Z,19.21
2023-01-22T09:38:15.224Z,19.21
2023-01-22T09:38:26.524Z,19.22
2023-01-22T09:38:38.086Z,19.23
2023-01-22T09:38:49.395Z,19.24
2023-01-22T09:39:01.004Z,19.24
2023-01-22T09:39:12.301Z,19.24
2023-01-22T09:39:23.844Z,19.24
2023-01-22T09:39:35.138Z,19.24
2023-01-22T09:39:46.731Z,19.25
2023-01-22T09:39:58.037Z,19.25
2023-01-22T09:40:09.587Z,19.26
2023-01-22T09:40:20.960Z,19.27
2023-01-22T09:40:32.554Z,19.27
2023-01-22T09:40:43.876Z,19.27
2023-01-22T09:40:55.439Z,19.28
2023-01-22T09:41:06.736Z,19.28
2023-01-22T09:41:18.304Z,19.28
2023-01-22T09:41:29.603Z,19.28
2023-01-22T09:41:41.157Z,19.29
2023-01-22T09:41:52.463Z,19.30
2023-01-22T09:42:04.013Z,19.30
2023-01-22T09:42:15.309Z,19.30
2023-01-22T09:42:26.866Z,19.31
2023-01-22T09:42:38.171Z,19.31
2023-01-22T09:42:49.729Z,19.32
2023-01-22T09:43:01.037Z,19.32
2023-01-22T09:43:12.614Z,19.32
2023-01-22T09:43:23.912Z,19.32
2023-01-22T09:43:35.476Z,19.33
2023-01-22T09:43:46.783Z,19.33
2023-01-22T09:43:58.336Z,19.34
2023-01-22T09:44:09.655Z,19.34
2023-01-22T09:44:21.214Z,19.34
2023-01-22T09:44:32.530Z,19.35
2023-01-22T09:44:44.094Z,19.35
2023-01-22T09:44:55.463Z,19.35
2023-01-22T09:45:07.017Z,19.36
2023-01-22T09:45:18.303Z,19.37
2023-01-22T09:45:29.876Z,19.36
2023-01-22T09:45:41.208Z,19.37
2023-01-22T09:45:52.961Z,19.38
2023-01-22T09:46:04.364Z,19.37
2023-01-22T09:46:15.995Z,19.38
2023-01-22T09:46:27.320Z,19.39
2023-01-22T09:46:38.893Z,19.39
2023-01-22T09:46:50.186Z,19.39
2023-01-22T09:47:01.738Z,19.40
2023-01-22T09:47:13.035Z,19.40
2023-01-22T09:47:24.595Z,19.40
2023-01-22T09:47:35.892Z,19.41
2023-01-22T09:47:47.576Z,19.41
2023-01-22T09:47:58.899Z,19.41
2023-01-22T09:48:10.586Z,19.42
2023-01-22T09:48:21.901Z,19.42
2023-01-22T09:48:33.464Z,19.42
2023-01-22T09:48:44.751Z,19.43
2023-01-22T09:48:56.298Z,19.43
2023-01-22T09:49:07.597Z,19.44
2023-01-22T09:49:19.164Z,19.44
2023-01-22T09:49:30.497Z,19.45
2023-01-22T09:49:42.094Z,19.45
2023-01-22T09:49:53.391Z,19.45
2023-01-22T09:50:04.969Z,19.46
2023-01-22T09:50:16.444Z,19.45
2023-01-22T09:50:28.124Z,19.46
2023-01-22T09:50:39.485Z,19.46
2023-01-22T09:50:51.111Z,19.47
2023-01-22T09:51:02.454Z,19.47
2023-01-22T09:51:14.019Z,19.47
2023-01-22T09:51:25.447Z,19.48
2023-01-22T09:51:37.025Z,19.48
2023-01-22T09:51:48.328Z,19.48
2023-01-22T09:51:59.886Z,19.49
2023-01-22T09:52:11.189Z,19.49
2023-01-22T09:52:22.738Z,19.49
2023-01-22T09:52:34.031Z,19.50
2023-01-22T09:52:45.627Z,19.50
2023-01-22T09:52:56.944Z,19.50
2023-01-22T09:53:08.511Z,19.51
2023-01-22T09:53:19.806Z,19.51
2023-01-22T09:53:31.361Z,19.52
2023-01-22T09:53:42.671Z,19.52
2023-01-22T09:53:54.225Z,19.53
2023-01-22T09:54:05.519Z,19.52
2023-01-22T09:54:17.068Z,19.53
2023-01-22T09:54:28.383Z,19.53
2023-01-22T09:54:39.944Z,19.53
2023-01-22T09:54:51.239Z,19.54
2023-01-22T09:55:02.801Z,19.54
2023-01-22T09:55:14.155Z,19.55
2023-01-22T09:55:25.733Z,19.55
2023-01-22T09:55:37.045Z,19.55
2023-01-22T09:55:48.611Z,19.56
2023-01-22T09:55:59.900Z,19.56
2023-01-22T09:56:11.454Z,19.56
2023-01-22T09:56:22.748Z,19.56
2023-01-22T09:56:34.301Z,19.57
2023-01-22T09:56:45.601Z,19.58
2023-01-22T09:56:57.181Z,19.58
2023-01-22T09:57:08.476Z,19.58
2023-01-22T09:57:31.271Z,19.59
2023-01-22T09:57:32.585Z,19.58
2023-01-22T09:57:44.236Z,19.59
2023-01-22T09:57:55.533Z,19.59
2023-01-22T09:58:07.087Z,19.59
2023-01-22T09:58:18.370Z,19.60
2023-01-22T09:58:29.912Z,19.61
2023-01-22T09:58:41.209Z,19.60
2023-01-22T09:58:52.774Z,19.61
2023-01-22T09:59:04.060Z,19.61
2023-01-22T09:59:15.612Z,19.62
2023-01-22T09:59:26.917Z,19.62
2023-01-22T09:59:38.459Z,19.63
2023-01-22T09:59:49.760Z,19.62
2023-01-22T10:00:01.328Z,19.63
2023-01-22T10:00:12.623Z,19.63
2023-01-22T10:00:24.245Z,19.64
2023-01-22T10:00:35.554Z,19.64
2023-01-22T10:00:47.192Z,19.64
2023-01-22T10:01:00.407Z,19.64
2023-01-22T10:01:09.959Z,19.64
2023-01-22T10:01:21.629Z,19.65
2023-01-22T10:01:33.084Z,19.65
2023-01-22T10:01:44.666Z,19.65
2023-01-22T10:01:55.947Z,19.66
2023-01-22T10:02:07.556Z,19.66
2023-01-22T10:02:18.976Z,19.66
2023-01-22T10:02:30.702Z,19.68
2023-01-22T10:02:42.127Z,19.68
2023-01-22T10:02:53.745Z,19.68
2023-01-22T10:03:05.046Z,19.68
2023-01-22T10:03:16.725Z,19.69
2023-01-22T10:03:28.085Z,19.69
2023-01-22T10:03:39.644Z,19.70
2023-01-22T10:03:50.954Z,19.69
2023-01-22T10:04:02.529Z,19.71
2023-01-22T10:04:13.831Z,19.72
2023-01-22T10:04:25.393Z,19.72
2023-01-22T10:04:36.728Z,19.72
2023-01-22T10:04:48.314Z,19.73
2023-01-22T10:04:59.598Z,19.73
2023-01-22T10:05:11.157Z,19.73
2023-01-22T10:05:22.465Z,19.74
2023-01-22T10:05:34.072Z,19.75
2023-01-22T10:05:45.359Z,19.75
2023-01-22T10:05:56.922Z,19.75
2023-01-22T10:06:08.224Z,19.75
2023-01-22T10:06:19.796Z,19.76
2023-01-22T10:06:31.102Z,19.76
2023-01-22T10:06:42.648Z,19.77
2023-01-22T10:06:53.938Z,19.77
2023-01-22T10:07:05.504Z,19.77
2023-01-22T10:07:16.805Z,19.77
2023-01-22T10:07:28.353Z,19.78
2023-01-22T10:07:39.645Z,19.78
2023-01-22T10:07:51.204Z,19.78
2023-01-22T10:08:02.517Z,19.78
2023-01-22T10:08:14.073Z,19.79
2023-01-22T10:08:25.383Z,19.79
2023-01-22T10:08:36.933Z,19.79
2023-01-22T10:08:48.249Z,19.79
2023-01-22T10:08:59.804Z,19.80
2023-01-22T10:09:11.111Z,19.81
2023-01-22T10:09:22.671Z,19.81
2023-01-22T10:09:33.957Z,19.81
2023-01-22T10:09:45.508Z,19.82
2023-01-22T10:09:56.849Z,19.82
2023-01-22T10:10:08.407Z,19.82
2023-01-22T10:10:20.138Z,19.82
2023-01-22T10:10:31.862Z,19.83
2023-01-22T10:10:43.236Z,19.83
2023-01-22T10:10:54.807Z,19.83
2023-01-22T10:11:06.095Z,19.83
2023-01-22T10:11:17.643Z,19.84
2023-01-22T10:11:28.942Z,19.84
2023-01-22T10:11:40.500Z,19.84
2023-01-22T10:11:51.811Z,19.85
2023-01-22T10:12:03.378Z,19.85
2023-01-22T10:12:14.662Z,19.86
2023-01-22T10:12:26.243Z,19.86
2023-01-22T10:12:37.542Z,19.86
2023-01-22T10:12:49.093Z,19.87
2023-01-22T10:13:00.385Z,19.87
2023-01-22T10:13:11.958Z,19.88
2023-01-22T10:13:23.266Z,19.87
2023-01-22T10:13:34.833Z,19.88
2023-01-22T10:13:46.157Z,19.88
2023-01-22T10:13:57.724Z,19.89
2023-01-22T10:14:09.033Z,19.89
2023-01-22T10:14:20.596Z,19.89
2023-01-22T10:14:31.892Z,19.90
2023-01-22T10:14:43.442Z,19.90
2023-01-22T10:14:54.741Z,19.89
2023-01-22T10:15:06.299Z,19.90
2023-01-22T10:15:17.596Z,19.90
2023-01-22T10:15:29.141Z,19.91
2023-01-22T10:15:40.438Z,19.91
2023-01-22T10:15:52.039Z,19.92
2023-01-22T10:16:03.342Z,19.91
2023-01-22T10:16:14.984Z,19.92
2023-01-22T10:16:26.301Z,19.92
2023-01-22T10:16:37.974Z,19.92
2023-01-22T10:16:49.427Z,19.93
2023-01-22T10:17:01.028Z,19.93
2023-01-22T10:17:12.317Z,19.94
2023-01-22T10:17:23.873Z,19.94
2023-01-22T10:17:35.163Z,19.94
2023-01-22T10:17:46.714Z,19.94
2023-01-22T10:17:58.021Z,19.94
2023-01-22T10:18:09.582Z,19.94
2023-01-22T10:18:20.995Z,19.95
2023-01-22T10:18:32.575Z,19.94
2023-01-22T10:18:43.889Z,19.95
2023-01-22T10:18:56.881Z,19.95
2023-01-22T10:19:06.218Z,19.96
2023-01-22T10:19:17.760Z,19.96
2023-01-22T10:19:29.062Z,19.96
2023-01-22T10:19:40.683Z,19.96
2023-01-22T10:19:52.012Z,19.97
2023-01-22T10:20:03.588Z,19.97
2023-01-22T10:20:14.891Z,19.97
2023-01-22T10:20:26.441Z,19.97
2023-01-22T10:20:37.740Z,19.97
2023-01-22T10:20:49.283Z,19.98
2023-01-22T10:21:00.623Z,19.98
2023-01-22T10:21:12.187Z,19.98
2023-01-22T10:21:23.506Z,19.98
2023-01-22T10:21:35.049Z,19.98
2023-01-22T10:21:46.338Z,19.99
2023-01-22T10:21:57.910Z,20.00
2023-01-22T10:22:09.214Z,19.99
2023-01-22T10:22:20.789Z,19.99
2023-01-22T10:22:32.099Z,20.00
2023-01-22T10:22:43.663Z,20.00
2023-01-22T10:22:54.978Z,20.00
2023-01-22T10:23:06.548Z,20.01
2023-01-22T10:23:17.845Z,20.01
2023-01-22T10:23:29.396Z,20.01
2023-01-22T10:23:40.702Z,20.02
2023-01-22T10:23:52.265Z,20.03
2023-01-22T10:24:03.569Z,20.03
2023-01-22T10:24:15.133Z,20.04
2023-01-22T10:24:26.439Z,20.05
2023-01-22T10:24:37.999Z,20.05
2023-01-22T10:24:49.295Z,20.06
2023-01-22T10:25:00.847Z,20.07
2023-01-22T10:25:12.145Z,20.08
2023-01-22T10:25:23.708Z,20.09
2023-01-22T10:25:35.040Z,20.10
2023-01-22T10:25:46.609Z,20.10
2023-01-22T10:25:57.906Z,20.11
2023-01-22T10:26:09.480Z,20.12
2023-01-22T10:26:20.801Z,20.12
2023-01-22T10:26:32.369Z,20.13
2023-01-22T10:26:43.669Z,20.14
2023-01-22T10:26:55.251Z,20.15
2023-01-22T10:27:06.543Z,20.15
2023-01-22T10:27:18.091Z,20.16
2023-01-22T10:27:29.381Z,20.16
2023-01-22T10:27:40.929Z,20.17
2023-01-22T10:27:52.234Z,20.17
2023-01-22T10:28:03.778Z,20.17
2023-01-22T10:28:15.081Z,20.17
2023-01-22T10:28:26.644Z,20.19
2023-01-22T10:28:37.934Z,20.18
2023-01-22T10:28:49.516Z,20.19
2023-01-22T10:29:00.802Z,20.20
2023-01-22T10:29:12.352Z,20.20
2023-01-22T10:29:23.650Z,20.20
2023-01-22T10:29:35.190Z,20.21
2023-01-22T10:29:46.493Z,20.22
2023-01-22T10:29:58.060Z,20.22
2023-01-22T10:30:09.359Z,20.22
2023-01-22T10:30:21.170Z,20.22
2023-01-22T10:30:33.117Z,20.23
2023-01-22T10:30:44.573Z,20.23
2023-01-22T10:30:56.301Z,20.24
2023-01-22T10:31:07.779Z,20.23
2023-01-22T10:31:19.521Z,20.24
2023-01-22T10:31:31.008Z,20.24
2023-01-22T10:31:42.731Z,20.24
2023-01-22T10:31:54.264Z,20.24
2023-01-22T10:32:05.928Z,20.24
2023-01-22T10:32:17.255Z,20.25
2023-01-22T10:32:28.802Z,20.24
2023-01-22T10:32:40.092Z,20.25
2023-01-22T10:32:51.636Z,20.26
2023-01-22T10:33:02.949Z,20.25
2023-01-22T10:33:14.512Z,20.26
2023-01-22T10:33:25.920Z,20.25
2023-01-22T10:33:37.487Z,20.26
2023-01-22T10:33:48.786Z,20.27
2023-01-22T10:34:00.358Z,20.26
2023-01-22T10:34:11.643Z,20.27
2023-01-22T10:34:23.192Z,20.27
2023-01-22T10:34:34.505Z,20.27
2023-01-22T10:34:46.043Z,20.28
2023-01-22T10:34:57.337Z,20.28
2023-01-22T10:35:08.897Z,20.29
2023-01-22T10:35:20.195Z,20.29
2023-01-22T10:35:31.742Z,20.29
2023-01-22T10:35:43.035Z,20.29
2023-01-22T10:35:54.597Z,20.29
2023-01-22T10:36:05.903Z,20.29
2023-01-22T10:36:17.453Z,20.30
2023-01-22T10:36:28.826Z,20.30
2023-01-22T10:36:40.377Z,20.30
2023-01-22T10:36:51.689Z,20.30
2023-01-22T10:37:03.236Z,20.30
2023-01-22T10:37:14.550Z,20.31
2023-01-22T10:37:26.130Z,20.31
2023-01-22T10:37:37.427Z,20.31
2023-01-22T10:37:49.001Z,20.31
2023-01-22T10:38:00.297Z,20.32
2023-01-22T10:38:11.854Z,20.33
2023-01-22T10:38:23.146Z,20.32
2023-01-22T10:38:34.701Z,20.32
2023-01-22T10:38:46.003Z,20.33
2023-01-22T10:38:57.545Z,20.33
2023-01-22T10:39:08.840Z,20.34
2023-01-22T10:39:20.394Z,20.34
2023-01-22T10:39:31.719Z,20.36
2023-01-22T10:39:43.273Z,20.36
2023-01-22T10:39:54.589Z,20.35
2023-01-22T10:40:06.149Z,20.37
2023-01-22T10:40:17.853Z,20.37
2023-01-22T10:40:29.531Z,20.37
2023-01-22T10:40:40.851Z,20.37
2023-01-22T10:40:52.431Z,20.37
2023-01-22T10:41:03.845Z,20.38
2023-01-22T10:41:15.411Z,20.38
2023-01-22T10:41:26.731Z,20.38
2023-01-22T10:41:38.330Z,20.39
2023-01-22T10:41:49.644Z,20.39
2023-01-22T10:42:01.212Z,20.40
2023-01-22T10:42:12.517Z,20.40
2023-01-22T10:42:24.082Z,20.40
2023-01-22T10:42:35.384Z,20.40
2023-01-22T10:42:46.932Z,20.41
2023-01-22T10:42:58.215Z,20.41
2023-01-22T10:43:09.759Z,20.41
2023-01-22T10:43:21.049Z,20.41
2023-01-22T10:43:32.594Z,20.41
2023-01-22T10:43:43.881Z,20.41
2023-01-22T10:43:55.442Z,20.42
2023-01-22T10:44:06.739Z,20.42
2023-01-22T10:44:18.293Z,20.42
2023-01-22T10:44:29.586Z,20.42
2023-01-22T10:44:41.132Z,20.43
2023-01-22T10:44:52.443Z,20.42
2023-01-22T10:45:03.997Z,20.43
2023-01-22T10:45:15.303Z,20.44
2023-01-22T10:45:26.863Z,20.44
2023-01-22T10:45:38.143Z,20.44
2023-01-22T10:45:49.706Z,20.44
2023-01-22T10:46:01.065Z,20.45
2023-01-22T10:46:12.760Z,20.45
2023-01-22T10:46:24.160Z,20.45
2023-01-22T10:46:35.773Z,20.45
2023-01-22T10:46:47.094Z,20.45
2023-01-22T10:46:58.643Z,20.45
2023-01-22T10:47:09.946Z,20.45
2023-01-22T10:47:21.501Z,20.45
2023-01-22T10:47:32.792Z,20.46
2023-01-22T10:47:44.348Z,20.45
2023-01-22T10:47:55.661Z,20.46
2023-01-22T10:48:07.225Z,20.46
2023-01-22T10:48:18.529Z,20.46
2023-01-22T10:48:30.213Z,20.47
2023-01-22T10:48:41.522Z,20.46
2023-01-22T10:48:53.269Z,20.47
2023-01-22T10:49:04.562Z,20.48
2023-01-22T10:49:16.112Z,20.48
2023-01-22T10:49:27.417Z,20.48
2023-01-22T10:49:39.059Z,20.48
2023-01-22T10:49:50.365Z,20.48
2023-01-22T10:50:04.308Z,20.48
2023-01-22T10:50:13.809Z,20.48
2023-01-22T10:50:25.366Z,20.50
2023-01-22T10:50:36.671Z,20.49
2023-01-22T10:50:48.251Z,20.49
2023-01-22T10:50:59.572Z,20.49
2023-01-22T10:51:11.197Z,20.50
2023-01-22T10:51:22.662Z,20.50
2023-01-22T10:51:34.250Z,20.50
2023-01-22T10:51:45.558Z,20.50
2023-01-22T10:51:57.160Z,20.51
2023-01-22T10:52:08.461Z,20.51
2023-01-22T10:52:20.014Z,20.52
2023-01-22T10:52:31.313Z,20.52
2023-01-22T10:52:42.876Z,20.52
2023-01-22T10:52:54.167Z,20.52
2023-01-22T10:53:05.712Z,20.53
2023-01-22T10:53:17.008Z,20.52
2023-01-22T10:53:28.613Z,20.53
2023-01-22T10:53:39.916Z,20.53
2023-01-22T10:53:51.462Z,20.53
2023-01-22T10:54:02.762Z,20.54
2023-01-22T10:54:14.387Z,20.54
2023-01-22T10:54:25.698Z,20.54
2023-01-22T10:54:37.464Z,20.55
2023-01-22T10:54:48.790Z,20.56
2023-01-22T10:55:00.436Z,20.56
2023-01-22T10:55:11.884Z,20.57
2023-01-22T10:55:23.655Z,20.59
2023-01-22T10:55:35.258Z,20.60
2023-01-22T10:55:46.934Z,20.62
2023-01-22T10:55:58.275Z,20.63
2023-01-22T10:56:12.396Z,20.65
2023-01-22T10:56:21.828Z,20.66
2023-01-22T10:56:33.537Z,20.68
2023-01-22T10:56:44.996Z,20.68
2023-01-22T10:56:56.652Z,20.70
2023-01-22T10:57:08.159Z,20.70
2023-01-22T10:57:20.079Z,20.72
2023-01-22T10:57:31.579Z,20.72
2023-01-22T10:57:43.324Z,20.73
2023-01-22T10:57:54.766Z,20.74
2023-01-22T10:58:06.334Z,20.75
2023-01-22T10:58:17.743Z,20.76
2023-01-22T10:58:29.436Z,20.76
2023-01-22T10:58:40.842Z,20.77
2023-01-22T10:58:52.566Z,20.78
2023-01-22T10:59:03.975Z,20.79
2023-01-22T10:59:15.543Z,20.79
2023-01-22T10:59:26.826Z,20.79
2023-01-22T10:59:38.515Z,20.80
2023-01-22T10:59:49.838Z,20.80
2023-01-22T11:00:01.409Z,20.81
2023-01-22T11:00:12.703Z,20.80